Time;durP1;ratioP1;P1;durP2;ratioP2;P2;SDS_P1;SDS_P2;PMS_P1;PMS_P2;Temp;Humidity;BMP_temperature;BMP_pressure;BME280_temperature;BME280_humidity;BME280_pressure;Samples;Min_cycle;Max_cycle;Signal;HPM_P1;HPM_P2
2023/01/18 00:00:31;;;;;;;14.50;4.93;;;2.70;99.80;;;;;;4991883;28;20038;-79
2023/01/18 00:02:57;;;;;;;10.60;4.53;;;2.80;99.90;;;;;;4995246;28;20116;-78
2023/01/18 00:05:23;;;;;;;9.02;4.03;;;2.60;99.90;;;;;;4995187;28;20125;-79
2023/01/18 00:07:51;;;;;;;15.52;4.70;;;2.60;99.90;;;;;;4994098;28;20054;-79
2023/01/18 00:10:17;;;;;;;11.85;4.53;;;2.60;99.90;;;;;;4994641;28;20096;-79
2023/01/18 00:12:43;;;;;;;12.68;4.18;;;2.60;99.90;;;;;;4993632;28;20193;-79
2023/01/18 00:15:09;;;;;;;8.90;3.72;;;2.60;99.90;;;;;;4994752;28;20026;-79
2023/01/18 00:17:46;;;;;;;11.80;4.40;;;2.60;99.90;;;;;;4994048;28;20026;-79
2023/01/18 00:20:15;;;;;;;21.17;4.78;;;2.60;99.90;;;;;;4994495;28;20119;-80
2023/01/18 00:22:42;;;;;;;11.90;4.82;;;2.60;99.90;;;;;;4994687;28;20053;-78
2023/01/18 00:25:09;;;;;;;13.80;4.55;;;2.70;99.90;;;;;;4994382;28;20189;-78
2023/01/18 00:27:36;;;;;;;15.23;5.45;;;2.70;99.90;;;;;;4993354;28;20041;-79
2023/01/18 00:30:09;;;;;;;16.65;4.32;;;2.60;99.90;;;;;;4994617;28;20026;-78
2023/01/18 00:32:35;;;;;;;15.75;4.97;;;2.60;99.90;;;;;;4993291;28;20019;-79
2023/01/18 00:35:06;;;;;;;12.80;4.82;;;2.90;99.90;;;;;;4994251;28;20058;-79
2023/01/18 00:37:35;;;;;;;15.38;5.70;;;2.50;99.80;;;;;;4993064;28;20033;-80
2023/01/18 00:40:01;;;;;;;11.50;4.70;;;2.40;99.90;;;;;;4994235;28;20046;-77
2023/01/18 00:45:11;;;;;;;76.00;30.75;;;2.30;99.90;;;;;;4994068;28;20189;-77
2023/01/18 00:47:37;;;;;;;15.02;6.93;;;2.30;99.90;;;;;;4994562;28;20129;-78
2023/01/18 00:50:03;;;;;;;13.23;5.57;;;2.30;99.90;;;;;;4992861;28;20144;-79
2023/01/18 00:52:29;;;;;;;17.50;5.22;;;2.20;99.90;;;;;;4992798;28;20136;-78
2023/01/18 00:54:57;;;;;;;9.18;4.72;;;2.20;99.90;;;;;;4992775;28;20456;-78
2023/01/18 00:57:22;;;;;;;10.02;4.70;;;2.30;99.90;;;;;;4993815;28;20261;-78
2023/01/18 00:59:48;;;;;;;18.00;4.93;;;2.30;99.90;;;;;;4994420;28;20027;-78
2023/01/18 01:02:14;;;;;;;9.07;5.07;;;2.30;99.90;;;;;;4993794;28;20262;-76
2023/01/18 01:07:24;;;;;;;8.30;4.50;;;2.30;99.90;;;;;;4993836;28;20041;-78
2023/01/18 01:09:50;;;;;;;14.30;4.20;;;2.30;99.90;;;;;;4993108;28;20026;-77
2023/01/18 01:26:06;;;;;;;15.10;4.57;;;2.10;99.90;;;;;;4994770;28;20146;-78
2023/01/18 01:28:37;;;;;;;14.75;4.47;;;2.00;99.90;;;;;;4996861;28;20038;-76
2023/01/18 01:31:05;;;;;;;11.95;4.75;;;2.10;99.90;;;;;;4994843;28;20053;-76
2023/01/18 01:33:33;;;;;;;13.32;4.53;;;2.00;99.90;;;;;;4994794;28;20512;-76
2023/01/18 01:36:01;;;;;;;11.02;4.93;;;2.00;99.90;;;;;;4994206;28;20022;-77
2023/01/18 01:38:28;;;;;;;17.17;5.28;;;2.00;99.90;;;;;;4994730;28;20113;-78
2023/01/18 01:41:17;;;;;;;10.23;4.35;;;1.90;99.90;;;;;;4995231;28;20034;-77
2023/01/18 01:43:55;;;;;;;9.35;4.15;;;1.80;99.90;;;;;;4994093;28;20027;-79
2023/01/18 01:46:36;;;;;;;17.67;4.95;;;1.90;99.90;;;;;;4993806;28;20037;-79
2023/01/18 01:49:12;;;;;;;9.70;4.70;;;1.80;99.90;;;;;;4994035;28;20092;-78
2023/01/18 01:51:47;;;;;;;10.40;3.97;;;1.80;99.90;;;;;;4994301;28;20034;-76
2023/01/18 01:54:25;;;;;;;13.43;4.68;;;1.80;99.90;;;;;;4994472;28;20096;-79
2023/01/18 01:56:57;;;;;;;8.18;4.70;;;1.70;99.90;;;;;;4993594;28;20046;-79
2023/01/18 01:59:23;;;;;;;12.57;4.18;;;1.70;99.90;;;;;;4994393;28;20049;-78
2023/01/18 02:01:49;;;;;;;13.30;4.90;;;1.70;99.90;;;;;;4992780;28;20023;-79
2023/01/18 02:04:14;;;;;;;13.70;4.75;;;1.70;99.90;;;;;;4992779;28;20050;-76
2023/01/18 02:06:40;;;;;;;10.65;5.00;;;1.70;99.90;;;;;;4992587;28;20133;-77
2023/01/18 02:09:11;;;;;;;13.77;5.32;;;1.70;99.90;;;;;;4991644;28;20022;-77
2023/01/18 02:11:38;;;;;;;15.43;5.15;;;1.80;99.90;;;;;;4993670;28;20022;-76
2023/01/18 02:14:09;;;;;;;11.15;4.60;;;1.80;99.90;;;;;;4992591;28;20104;-77
2023/01/18 02:16:59;;;;;;;17.80;6.03;;;1.70;99.90;;;;;;4992376;28;20031;-77
2023/01/18 02:19:53;;;;;;;9.85;4.80;;;1.60;99.90;;;;;;4991337;28;20464;-78
2023/01/18 02:22:40;;;;;;;21.35;5.57;;;1.60;99.90;;;;;;4993078;28;20081;-78
2023/01/18 02:25:27;;;;;;;11.15;4.70;;;1.60;99.90;;;;;;4991298;28;20042;-77
2023/01/18 02:28:12;;;;;;;19.83;5.47;;;1.50;99.90;;;;;;4993082;28;20141;-78
2023/01/18 02:30:48;;;;;;;16.50;6.30;;;1.50;99.90;;;;;;4992506;28;20042;-79
2023/01/18 02:33:37;;;;;;;10.55;5.13;;;1.60;99.90;;;;;;4992017;28;20030;-77
2023/01/18 02:36:04;;;;;;;14.32;5.40;;;1.40;99.90;;;;;;5002164;28;20022;-78
2023/01/18 02:38:43;;;;;;;19.27;4.80;;;1.50;99.90;;;;;;5011547;28;20092;-77
2023/01/18 02:41:15;;;;;;;12.43;4.78;;;1.50;99.90;;;;;;5012099;28;20026;-77
2023/01/18 02:46:34;;;;;;;10.32;4.47;;;1.50;99.90;;;;;;5012109;28;20337;-78
2023/01/18 02:49:21;;;;;;;10.85;5.00;;;1.50;99.90;;;;;;5011796;28;20037;-79
2023/01/18 02:51:47;;;;;;;11.77;5.25;;;1.50;99.90;;;;;;5010505;28;20029;-78
2023/01/18 02:54:23;;;;;;;9.57;4.70;;;1.60;99.90;;;;;;5011247;28;20044;-77
2023/01/18 02:56:54;;;;;;;7.90;4.72;;;1.50;99.90;;;;;;5012255;28;20026;-77
2023/01/18 02:59:43;;;;;;;13.57;5.40;;;1.40;99.90;;;;;;5010284;28;20038;-77
2023/01/18 03:02:11;;;;;;;12.70;5.60;;;1.40;99.90;;;;;;5010934;28;20088;-77
2023/01/18 03:04:52;;;;;;;10.90;5.20;;;1.40;99.90;;;;;;5011355;28;20375;-78
2023/01/18 03:07:22;;;;;;;12.02;5.70;;;1.40;99.90;;;;;;5011200;28;20030;-76
2023/01/18 03:09:48;;;;;;;11.38;4.85;;;1.30;99.90;;;;;;5011346;28;20095;-77
2023/01/18 03:12:45;;;;;;;7.97;4.88;;;1.40;99.90;;;;;;5011244;28;20034;-76
2023/01/18 03:15:35;;;;;;;11.77;4.73;;;1.30;99.90;;;;;;5011218;28;20358;-75
2023/01/18 03:18:11;;;;;;;11.20;4.47;;;1.30;99.90;;;;;;5010396;28;20120;-78
2023/01/18 03:20:41;;;;;;;13.63;5.40;;;1.30;99.90;;;;;;5011697;28;20036;-77
2023/01/18 03:23:40;;;;;;;19.73;5.68;;;1.30;99.90;;;;;;5011172;28;20057;-77
2023/01/18 03:26:08;;;;;;;12.18;4.93;;;1.30;99.90;;;;;;5011059;28;20049;-78
2023/01/18 03:34:46;;;;;;;14.82;5.95;;;1.30;99.90;;;;;;5011060;28;20080;-76
2023/01/18 03:37:29;;;;;;;15.82;6.07;;;1.30;99.90;;;;;;5014428;28;20085;-77
2023/01/18 03:40:06;;;;;;;14.30;5.30;;;1.40;99.90;;;;;;5015056;28;20046;-78
2023/01/18 03:42:41;;;;;;;14.13;5.20;;;1.40;99.90;;;;;;5014684;28;20109;-77
2023/01/18 03:45:21;;;;;;;11.27;4.78;;;1.40;99.90;;;;;;5014752;28;20030;-78
2023/01/18 03:47:49;;;;;;;11.10;5.82;;;1.30;99.90;;;;;;5014291;28;20057;-79
2023/01/18 03:50:15;;;;;;;;;;;1.30;99.90;;;;;;5015071;28;20029;-77
2023/01/18 03:52:45;;;;;;;14.00;5.88;;;1.30;99.90;;;;;;5014242;28;19929;-76
2023/01/18 03:55:27;;;;;;;11.30;5.28;;;1.20;99.90;;;;;;5014439;28;20030;-76
2023/01/18 03:57:58;;;;;;;12.43;5.15;;;1.50;99.90;;;;;;5015115;28;20041;-77
2023/01/18 04:00:24;;;;;;;17.00;5.60;;;1.20;99.90;;;;;;5014968;28;20034;-77
2023/01/18 04:02:50;;;;;;;11.85;5.40;;;1.20;99.90;;;;;;5016927;28;20033;-76
2023/01/18 04:05:19;;;;;;;10.55;5.07;;;1.20;99.90;;;;;;5016209;28;20034;-78
2023/01/18 04:07:45;;;;;;;11.50;5.20;;;1.30;99.90;;;;;;5014907;28;20125;-76
2023/01/18 04:10:11;;;;;;;9.20;4.97;;;1.30;99.90;;;;;;5014003;28;20507;-77
2023/01/18 04:12:36;;;;;;;11.90;5.93;;;1.30;99.90;;;;;;5013736;28;20388;-76
2023/01/18 04:15:03;;;;;;;18.70;5.18;;;1.30;99.90;;;;;;5013668;28;20629;-78
2023/01/18 04:17:28;;;;;;;11.63;5.25;;;1.40;99.90;;;;;;5014977;28;20026;-78
2023/01/18 04:19:54;;;;;;;10.85;5.30;;;1.40;99.90;;;;;;5014239;28;20318;-78
2023/01/18 04:22:20;;;;;;;14.75;5.60;;;1.40;99.90;;;;;;5013649;28;20061;-77
2023/01/18 04:24:46;;;;;;;19.88;5.20;;;1.30;99.90;;;;;;5013467;28;20038;-77
2023/01/18 04:27:11;;;;;;;12.63;5.13;;;1.30;99.90;;;;;;5013835;28;20087;-77
2023/01/18 04:29:37;;;;;;;15.52;5.05;;;1.20;99.90;;;;;;5014164;28;20040;-79
2023/01/18 04:32:04;;;;;;;15.48;5.10;;;1.20;99.90;;;;;;5013865;28;20040;-77
2023/01/18 04:34:30;;;;;;;12.55;5.50;;;1.10;99.90;;;;;;5013671;28;20034;-78
2023/01/18 04:36:56;;;;;;;7.30;4.57;;;1.10;99.90;;;;;;5013836;28;20045;-78
2023/01/18 04:39:22;;;;;;;12.93;4.85;;;1.10;99.90;;;;;;5013958;28;20061;-77
2023/01/18 04:41:48;;;;;;;10.43;5.22;;;1.10;99.90;;;;;;5014194;28;20076;-76
2023/01/18 04:44:14;;;;;;;11.15;4.97;;;1.10;99.90;;;;;;5013675;28;20092;-78
2023/01/18 04:46:40;;;;;;;10.40;4.35;;;1.00;99.90;;;;;;5012199;28;20049;-80
2023/01/18 04:49:12;;;;;;;14.95;5.30;;;1.00;99.90;;;;;;5012252;28;20415;-78
2023/01/18 04:51:38;;;;;;;11.65;5.13;;;1.00;99.90;;;;;;5013056;28;20030;-77
2023/01/18 04:54:04;;;;;;;9.75;5.40;;;1.10;99.90;;;;;;5013258;28;20022;-78
2023/01/18 04:56:29;;;;;;;13.73;5.15;;;1.10;99.90;;;;;;5013877;28;20026;-77
2023/01/18 04:58:55;;;;;;;9.85;4.85;;;1.00;99.90;;;;;;5013209;28;20030;-79
2023/01/18 05:01:22;;;;;;;14.15;5.90;;;1.10;99.90;;;;;;5013575;28;20091;-79
2023/01/18 05:03:48;;;;;;;11.27;5.70;;;1.10;99.90;;;;;;5013226;28;20038;-78
2023/01/18 05:06:15;;;;;;;10.70;5.45;;;1.20;99.90;;;;;;5013080;28;20018;-78
2023/01/18 05:08:41;;;;;;;12.83;5.07;;;1.20;99.90;;;;;;5013723;28;20424;-78
2023/01/18 05:11:12;;;;;;;16.02;5.95;;;1.20;99.90;;;;;;5011966;28;20030;-77
2023/01/18 05:13:39;;;;;;;11.40;6.10;;;1.20;99.90;;;;;;5013077;28;20038;-78
2023/01/18 05:16:06;;;;;;;11.30;5.00;;;1.30;99.90;;;;;;5013252;28;20172;-77
2023/01/18 05:18:32;;;;;;;13.07;6.18;;;1.30;99.90;;;;;;5013181;28;20037;-78
2023/01/18 05:20:58;;;;;;;19.10;5.78;;;1.30;99.90;;;;;;5012821;28;20030;-78
2023/01/18 05:23:24;;;;;;;17.90;5.80;;;1.30;99.90;;;;;;5013738;28;20026;-79
2023/01/18 05:25:55;;;;;;;16.52;6.03;;;1.30;99.90;;;;;;5011725;28;20476;-79
2023/01/18 05:28:23;;;;;;;15.60;6.40;;;1.30;99.90;;;;;;5012739;28;20037;-79
2023/01/18 05:30:50;;;;;;;13.68;6.47;;;1.30;99.90;;;;;;5012581;28;20034;-79
2023/01/18 05:33:17;;;;;;;15.05;5.93;;;1.60;99.90;;;;;;5011661;28;20503;-77
2023/01/18 05:35:48;;;;;;;13.93;7.00;;;1.20;99.90;;;;;;5013465;28;20038;-78
2023/01/18 05:38:14;;;;;;;13.27;5.88;;;1.30;99.90;;;;;;5012802;28;20048;-77
2023/01/18 05:40:42;;;;;;;12.50;6.40;;;1.50;99.90;;;;;;5012474;28;20046;-79
2023/01/18 05:43:08;;;;;;;14.55;7.07;;;1.30;99.90;;;;;;5012636;28;20030;-80
2023/01/18 05:45:33;;;;;;;14.50;5.88;;;1.20;99.90;;;;;;5013262;28;20105;-79
2023/01/18 05:47:59;;;;;;;16.60;6.65;;;1.30;99.90;;;;;;5012665;28;20029;-76
2023/01/18 05:50:25;;;;;;;18.42;5.95;;;1.30;99.90;;;;;;5012965;28;20468;-78
2023/01/18 05:52:51;;;;;;;12.95;5.72;;;1.30;99.90;;;;;;5011453;28;20476;-77
2023/01/18 05:55:17;;;;;;;15.25;6.65;;;1.30;99.90;;;;;;5013182;28;20105;-80
2023/01/18 05:57:43;;;;;;;15.18;6.57;;;1.30;99.90;;;;;;5012701;28;20325;-77
2023/01/18 06:00:10;;;;;;;12.63;6.55;;;1.40;99.90;;;;;;5012329;28;20097;-77
2023/01/18 06:02:35;;;;;;;17.48;6.53;;;1.40;99.90;;;;;;5012079;28;20057;-79
2023/01/18 06:05:01;;;;;;;13.68;6.38;;;1.40;99.90;;;;;;5011446;28;20068;-79
2023/01/18 06:07:26;;;;;;;15.07;7.35;;;1.40;99.90;;;;;;5011568;28;20026;-78
2023/01/18 06:09:52;;;;;;;13.63;6.55;;;1.40;99.90;;;;;;5012699;28;20526;-80
2023/01/18 06:12:18;;;;;;;16.92;6.05;;;1.40;99.90;;;;;;5012788;28;20045;-77
2023/01/18 06:14:43;;;;;;;13.75;6.10;;;1.50;99.90;;;;;;5012845;28;20022;-77
2023/01/18 06:17:09;;;;;;;21.55;6.03;;;1.40;99.90;;;;;;5013537;28;20531;-77
2023/01/18 06:19:35;;;;;;;11.63;5.55;;;1.50;99.90;;;;;;5017565;28;20026;-83
2023/01/18 06:22:00;;;;;;;12.93;6.15;;;1.40;99.90;;;;;;5018385;28;20049;-82
2023/01/18 06:24:26;;;;;;;13.10;6.20;;;1.50;99.90;;;;;;5016483;28;20041;-81
2023/01/18 06:26:52;;;;;;;17.75;6.07;;;1.50;99.90;;;;;;5015665;28;20072;-82
2023/01/18 06:29:17;;;;;;;14.30;5.85;;;1.50;99.90;;;;;;5014209;28;20049;-84
2023/01/18 06:31:43;;;;;;;15.20;6.00;;;1.60;99.90;;;;;;5015782;28;20042;-83
2023/01/18 06:34:09;;;;;;;15.95;5.55;;;1.50;99.90;;;;;;5016246;28;20052;-78
2023/01/18 06:36:36;;;;;;;14.73;6.43;;;1.50;99.90;;;;;;5012608;28;20096;-76
2023/01/18 06:39:02;;;;;;;17.83;6.20;;;1.60;99.90;;;;;;5008451;28;20057;-77
2023/01/18 06:41:28;;;;;;;14.30;6.28;;;1.60;99.90;;;;;;4991416;28;20096;-77
2023/01/18 06:43:54;;;;;;;15.63;6.13;;;1.50;99.90;;;;;;4999873;28;20085;-78
2023/01/18 06:46:20;;;;;;;19.23;6.60;;;1.50;99.90;;;;;;5012289;28;20029;-82
2023/01/18 06:48:46;;;;;;;13.30;6.57;;;1.50;99.90;;;;;;5012172;28;20038;-81
2023/01/18 06:51:12;;;;;;;17.00;7.28;;;1.50;99.90;;;;;;5012253;28;20022;-81
2023/01/18 06:53:38;;;;;;;14.63;6.15;;;1.60;99.90;;;;;;5011860;28;20040;-81
2023/01/18 06:56:09;;;;;;;16.20;6.93;;;1.60;99.90;;;;;;5011987;28;20109;-81
2023/01/18 06:58:35;;;;;;;21.98;6.10;;;1.60;99.90;;;;;;5013462;28;20445;-83
2023/01/18 07:01:03;;;;;;;13.52;6.13;;;1.50;99.90;;;;;;5012901;28;20149;-83
2023/01/18 07:03:30;;;;;;;;;;;1.60;99.90;;;;;;5011662;28;20112;-83
2023/01/18 07:05:57;;;;;;;18.27;6.32;;;1.60;99.90;;;;;;5013347;28;19916;-81
2023/01/18 07:08:29;;;;;;;16.23;6.47;;;1.60;99.90;;;;;;5011423;28;20041;-82
2023/01/18 07:10:58;;;;;;;18.27;6.28;;;1.70;99.90;;;;;;5010505;28;20041;-81
2023/01/18 07:13:24;;;;;;;17.33;7.78;;;1.60;99.90;;;;;;5012548;28;20479;-83
2023/01/18 07:15:58;;;;;;;13.70;6.32;;;1.70;99.90;;;;;;5011489;28;20048;-83
2023/01/18 07:18:24;;;;;;;20.20;6.97;;;1.70;99.90;;;;;;5011312;28;20452;-81
2023/01/18 07:20:58;;;;;;;14.27;6.43;;;1.60;99.90;;;;;;5012117;28;20028;-81
2023/01/18 07:23:24;;;;;;;17.17;6.32;;;1.70;99.90;;;;;;5007680;28;20499;-83
2023/01/18 07:25:59;;;;;;;20.13;6.25;;;1.60;99.90;;;;;;5010758;28;20427;-80
2023/01/18 07:28:25;;;;;;;16.92;5.75;;;1.70;99.90;;;;;;5010844;28;20113;-83
2023/01/18 07:30:50;;;;;;;18.00;6.93;;;1.70;99.90;;;;;;5010458;28;20073;-81
2023/01/18 07:33:16;;;;;;;18.38;6.70;;;1.70;99.90;;;;;;5010278;28;20045;-78
2023/01/18 07:35:42;;;;;;;17.05;6.50;;;1.80;99.90;;;;;;5011660;28;20448;-78
2023/01/18 07:38:08;;;;;;;16.17;6.07;;;1.80;99.90;;;;;;5010239;28;20111;-79
2023/01/18 07:40:34;;;;;;;23.55;7.35;;;1.80;99.90;;;;;;5011714;28;20042;-78
2023/01/18 07:43:01;;;;;;;17.63;6.18;;;1.80;99.90;;;;;;5011545;28;20425;-79
2023/01/18 07:45:27;;;;;;;18.98;6.55;;;1.80;99.90;;;;;;5011003;28;20034;-83
2023/01/18 07:47:53;;;;;;;15.82;5.82;;;1.90;99.90;;;;;;5012624;28;20463;-81
2023/01/18 07:50:20;;;;;;;16.08;6.85;;;1.80;99.90;;;;;;5011409;28;20038;-80
2023/01/18 07:52:46;;;;;;;12.40;6.05;;;1.80;99.90;;;;;;5011825;28;20037;-85
2023/01/18 07:55:11;;;;;;;17.23;6.65;;;1.80;99.90;;;;;;5010458;28;20034;-80
2023/01/18 07:57:37;;;;;;;17.42;6.47;;;1.80;99.90;;;;;;5010296;28;20430;-80
2023/01/18 08:00:05;;;;;;;12.77;5.80;;;1.90;99.90;;;;;;5010292;28;20484;-81
2023/01/18 08:02:32;;;;;;;16.10;6.63;;;1.80;99.90;;;;;;5011927;28;20018;-80
2023/01/18 08:04:58;;;;;;;16.30;6.88;;;1.70;99.90;;;;;;5011544;28;20045;-78
2023/01/18 08:07:25;;;;;;;15.68;6.18;;;1.80;99.90;;;;;;5011044;28;20034;-80
2023/01/18 08:09:51;;;;;;;15.02;6.00;;;1.90;99.90;;;;;;5011005;28;20042;-79
2023/01/18 08:12:17;;;;;;;14.70;6.65;;;1.90;99.90;;;;;;5011197;28;20101;-79
2023/01/18 08:14:44;;;;;;;16.77;6.07;;;2.00;99.90;;;;;;5011614;28;20028;-79
2023/01/18 08:17:10;;;;;;;15.87;6.70;;;2.00;99.90;;;;;;5009853;28;20022;-79
2023/01/18 08:19:36;;;;;;;18.95;6.65;;;1.90;99.90;;;;;;5010980;28;20044;-77
2023/01/18 08:22:02;;;;;;;21.33;7.20;;;2.00;99.90;;;;;;5011162;28;20041;-76
2023/01/18 08:24:27;;;;;;;14.80;7.15;;;2.20;99.90;;;;;;5013464;28;20080;-78
2023/01/18 08:26:53;;;;;;;17.60;6.05;;;2.10;99.90;;;;;;5014766;28;20046;-78
2023/01/18 08:29:18;;;;;;;13.77;5.95;;;2.10;99.90;;;;;;5013544;28;20037;-82
2023/01/18 08:31:44;;;;;;;16.83;7.38;;;2.00;99.90;;;;;;5014633;28;20046;-78
2023/01/18 08:34:10;;;;;;;16.75;7.07;;;2.10;99.90;;;;;;5014335;28;20365;-82
2023/01/18 08:36:35;;;;;;;17.00;6.85;;;2.20;99.90;;;;;;5013237;28;20045;-77
2023/01/18 08:39:01;;;;;;;18.73;8.27;;;2.30;99.90;;;;;;5012236;28;20026;-76
2023/01/18 08:41:28;;;;;;;15.82;6.18;;;2.30;99.90;;;;;;5011284;28;20121;-77
2023/01/18 08:43:58;;;;;;;21.08;6.60;;;2.40;99.90;;;;;;5012961;28;20026;-77
2023/01/18 08:46:24;;;;;;;13.48;6.35;;;2.40;99.90;;;;;;5013450;28;20087;-79
2023/01/18 08:48:55;;;;;;;15.73;6.68;;;2.50;99.90;;;;;;5012350;28;20118;-78
2023/01/18 08:51:22;;;;;;;24.33;6.65;;;2.50;99.90;;;;;;5012884;28;20056;-79
2023/01/18 08:53:53;;;;;;;14.02;7.32;;;2.50;99.90;;;;;;5012442;28;20034;-75
2023/01/18 08:56:19;;;;;;;15.93;6.53;;;2.50;99.90;;;;;;5011958;28;20530;-79
2023/01/18 08:58:46;;;;;;;19.15;7.47;;;2.60;99.90;;;;;;5013346;28;20025;-77
2023/01/18 09:01:11;;;;;;;16.95;7.95;;;2.70;99.90;;;;;;5012955;28;20137;-77
2023/01/18 09:03:37;;;;;;;17.02;6.93;;;2.70;99.90;;;;;;5011882;28;20053;-77
2023/01/18 09:06:06;;;;;;;14.95;7.30;;;2.80;99.90;;;;;;5012690;28;20030;-76
2023/01/18 09:08:32;;;;;;;13.25;7.07;;;2.70;99.90;;;;;;5013679;28;20040;-77
2023/01/18 09:11:06;;;;;;;16.90;6.70;;;2.70;99.90;;;;;;5011792;28;20085;-77
2023/01/18 09:13:33;;;;;;;15.73;6.85;;;2.80;99.90;;;;;;5011791;28;20049;-77
2023/01/18 09:16:06;;;;;;;22.83;8.23;;;3.00;99.90;;;;;;5012282;28;20088;-75
2023/01/18 09:18:32;;;;;;;17.70;7.63;;;3.00;99.90;;;;;;5012099;28;20091;-75
2023/01/18 09:21:03;;;;;;;13.43;6.53;;;3.10;99.80;;;;;;5012332;28;20192;-76
2023/01/18 09:23:30;;;;;;;21.27;6.97;;;3.10;99.70;;;;;;5012192;28;20029;-78
2023/01/18 09:26:05;;;;;;;18.92;7.47;;;3.10;99.70;;;;;;5012274;28;20117;-74
2023/01/18 09:28:31;;;;;;;16.13;8.18;;;3.20;99.80;;;;;;5012117;28;20030;-74
2023/01/18 09:31:01;;;;;;;17.10;7.90;;;3.30;99.60;;;;;;5012218;28;20326;-76
2023/01/18 09:33:28;;;;;;;20.48;7.50;;;3.40;99.50;;;;;;5009957;28;20053;-75
2023/01/18 09:35:55;;;;;;;17.52;7.57;;;3.40;99.30;;;;;;5011335;28;20080;-76
2023/01/18 09:38:21;;;;;;;17.48;7.88;;;3.60;99.40;;;;;;5012143;28;20115;-74
2023/01/18 09:40:48;;;;;;;18.95;7.90;;;3.60;99.20;;;;;;5012066;28;20034;-75
2023/01/18 09:43:18;;;;;;;17.17;7.63;;;3.70;99.40;;;;;;5011659;28;20357;-74
2023/01/18 09:45:46;;;;;;;20.48;8.13;;;3.80;99.40;;;;;;5008560;28;20025;-74
2023/01/18 09:48:38;;;;;;;25.00;8.40;;;3.80;99.50;;;;;;5020869;28;20329;-74
2023/01/18 09:51:24;;;;;;;16.88;7.82;;;3.90;99.40;;;;;;5012009;28;20121;-75
2023/01/18 09:54:11;;;;;;;18.30;7.35;;;4.00;99.10;;;;;;5011362;28;20428;-75
2023/01/18 09:57:04;;;;;;;16.55;7.75;;;4.10;99.10;;;;;;5012315;28;20475;-74
2023/01/18 09:59:40;;;;;;;20.13;7.57;;;4.20;98.80;;;;;;5011469;28;20519;-74
2023/01/18 10:02:20;;;;;;;18.55;8.85;;;4.40;98.60;;;;;;5010285;28;20034;-74
2023/01/18 10:04:53;;;;;;;24.30;7.85;;;4.50;98.10;;;;;;5010243;28;20044;-73
2023/01/18 10:07:22;;;;;;;22.88;10.05;;;4.50;97.80;;;;;;5011259;28;20083;-75
2023/01/18 10:09:54;;;;;;;18.35;8.70;;;4.70;98.20;;;;;;5011328;28;20061;-76
2023/01/18 10:12:42;;;;;;;18.58;8.23;;;4.80;97.90;;;;;;5010371;28;20034;-76
2023/01/18 10:15:19;;;;;;;18.02;7.88;;;4.90;98.10;;;;;;5011365;28;20033;-74
2023/01/18 10:17:46;;;;;;;15.63;7.35;;;4.90;97.60;;;;;;5012068;28;20042;-78
2023/01/18 10:20:36;;;;;;;19.20;7.35;;;5.10;97.80;;;;;;5012003;28;20029;-77
2023/01/18 10:23:09;;;;;;;15.68;6.95;;;5.10;97.50;;;;;;5010287;28;20105;-77
2023/01/18 10:25:52;;;;;;;16.42;7.28;;;5.10;97.00;;;;;;5010020;28;20038;-76
2023/01/18 10:28:39;;;;;;;17.05;7.95;;;5.10;96.70;;;;;;5011251;28;20473;-76
2023/01/18 10:31:29;;;;;;;18.60;8.18;;;5.30;96.50;;;;;;5011356;28;20368;-79
2023/01/18 10:33:58;;;;;;;24.05;11.93;;;5.30;96.30;;;;;;5009921;28;20038;-77
2023/01/18 10:36:37;;;;;;;22.27;8.60;;;5.40;96.10;;;;;;5010906;28;20081;-77
2023/01/18 10:39:12;;;;;;;14.18;6.70;;;5.50;96.00;;;;;;5011382;28;20076;-78
2023/01/18 10:41:39;;;;;;;17.45;7.90;;;5.60;96.00;;;;;;5011647;28;20158;-77
2023/01/18 10:44:08;;;;;;;16.67;6.82;;;5.70;95.80;;;;;;5010115;28;20048;-78
2023/01/18 10:46:34;;;;;;;13.60;6.75;;;5.80;95.40;;;;;;5011339;28;20033;-78
2023/01/18 10:48:59;;;;;;;16.50;7.10;;;5.50;94.50;;;;;;5011149;28;20033;-78
2023/01/18 10:51:33;;;;;;;16.65;7.30;;;5.60;95.20;;;;;;5010898;28;20022;-76
2023/01/18 10:54:18;;;;;;;19.40;7.57;;;5.70;94.80;;;;;;5010715;28;20026;-78
2023/01/18 10:56:44;;;;;;;16.13;7.25;;;5.80;95.00;;;;;;5011343;28;20018;-76
2023/01/18 10:59:34;;;;;;;15.65;6.78;;;5.90;94.60;;;;;;5009515;28;20033;-77
2023/01/18 11:02:00;;;;;;;13.07;7.03;;;6.00;94.70;;;;;;5010643;28;20026;-78
2023/01/18 11:04:31;;;;;;;15.65;6.72;;;6.00;94.60;;;;;;5010626;28;20034;-77
2023/01/18 11:07:00;;;;;;;15.45;6.97;;;6.10;94.10;;;;;;5010785;28;20034;-77
2023/01/18 11:09:58;;;;;;;16.90;7.25;;;6.00;94.10;;;;;;5011050;28;20598;-78
2023/01/18 11:12:46;;;;;;;15.70;7.18;;;6.00;94.20;;;;;;5010663;28;20040;-78
2023/01/18 11:15:21;;;;;;;17.70;6.80;;;6.00;93.80;;;;;;5010993;28;20104;-77
2023/01/18 11:17:53;;;;;;;11.95;6.13;;;6.00;93.90;;;;;;5011105;28;20022;-78
2023/01/18 11:20:44;;;;;;;11.60;6.18;;;6.00;93.90;;;;;;5009680;28;20133;-75
2023/01/18 11:23:13;;;;;;;29.77;12.13;;;6.20;93.90;;;;;;5009311;28;20034;-77
2023/01/18 11:25:45;;;;;;;13.93;6.70;;;6.50;94.00;;;;;;5011015;28;20050;-84
2023/01/18 11:28:36;;;;;;;15.82;7.50;;;6.70;93.50;;;;;;5011140;28;20586;-78
2023/01/18 11:31:16;;;;;;;14.70;6.55;;;7.00;93.40;;;;;;5005217;28;20030;-82
2023/01/18 11:34:03;;;;;;;19.30;6.40;;;7.30;93.40;;;;;;5012882;28;20381;-79
2023/01/18 11:36:47;;;;;;;18.52;7.13;;;7.60;92.50;;;;;;5017632;28;20500;-78
2023/01/18 11:39:21;;;;;;;18.83;6.78;;;8.10;92.40;;;;;;5010671;28;20061;-76
2023/01/18 11:41:48;;;;;;;16.63;6.18;;;8.70;92.40;;;;;;5011026;28;20097;-77
2023/01/18 11:44:35;;;;;;;18.42;6.40;;;8.80;91.30;;;;;;5009507;28;20675;-75
2023/01/18 11:47:05;;;;;;;16.83;6.70;;;9.30;90.80;;;;;;5009188;28;20036;-74
2023/01/18 11:49:48;;;;;;;13.63;5.75;;;9.70;90.70;;;;;;5009284;28;20343;-76
2023/01/18 11:52:26;;;;;;;13.55;5.90;;;9.90;89.50;;;;;;5009356;28;20038;-75
2023/01/18 11:54:58;;;;;;;12.45;6.20;;;10.20;88.50;;;;;;5009874;28;20065;-77
2023/01/18 11:57:26;;;;;;;15.23;5.80;;;10.30;86.90;;;;;;5013901;28;20088;-79
2023/01/18 11:59:53;;;;;;;10.50;4.50;;;10.30;85.00;;;;;;5014231;28;20030;-79
2023/01/18 12:02:22;;;;;;;10.25;4.90;;;10.10;85.70;;;;;;5014614;28;20025;-78
2023/01/18 12:05:27;;;;;;;12.95;4.43;;;10.00;87.00;;;;;;5014270;28;20455;-77
2023/01/18 12:08:19;;;;;;;12.45;5.22;;;9.90;87.00;;;;;;5014177;28;20044;-78
2023/01/18 12:10:45;;;;;;;15.68;5.57;;;9.60;87.20;;;;;;5013179;28;20383;-78
2023/01/18 12:13:33;;;;;;;10.57;3.95;;;9.40;87.30;;;;;;5015300;28;20030;-78
2023/01/18 12:16:21;;;;;;;11.07;4.25;;;9.30;87.10;;;;;;5016035;28;20196;-80
2023/01/18 12:19:02;;;;;;;10.48;4.13;;;9.30;87.70;;;;;;5015291;28;20077;-77
2023/01/18 12:21:44;;;;;;;14.38;4.97;;;9.00;87.40;;;;;;5013973;28;20125;-79
2023/01/18 12:24:32;;;;;;;9.27;5.05;;;9.00;88.10;;;;;;5013942;28;20101;-80
2023/01/18 12:27:07;;;;;;;9.55;3.92;;;9.00;88.20;;;;;;5013535;28;20472;-74
2023/01/18 12:29:53;;;;;;;12.48;5.93;;;9.10;87.50;;;;;;5013920;28;20101;-77
2023/01/18 12:32:31;;;;;;;10.20;4.32;;;9.10;87.70;;;;;;5013548;28;20030;-76
2023/01/18 12:35:13;;;;;;;14.02;5.22;;;8.80;86.00;;;;;;5012408;28;20042;-77
2023/01/18 12:38:05;;;;;;;8.15;3.95;;;8.70;86.50;;;;;;5012837;28;20393;-79
2023/01/18 12:40:54;;;;;;;12.77;5.65;;;8.60;87.60;;;;;;5013816;28;20033;-81
2023/01/18 12:43:39;;;;;;;10.32;5.32;;;8.40;86.80;;;;;;5012656;28;20041;-77
2023/01/18 12:46:40;;;;;;;10.15;5.28;;;8.20;87.50;;;;;;5013930;28;20050;-79
2023/01/18 12:49:20;;;;;;;11.98;4.70;;;8.00;87.30;;;;;;5012105;28;20111;-79
2023/01/18 12:51:59;;;;;;;12.52;5.18;;;7.80;88.20;;;;;;5012508;28;20045;-79
2023/01/18 12:54:30;;;;;;;12.55;7.03;;;8.20;88.80;;;;;;5013101;28;20041;-78
2023/01/18 12:56:58;;;;;;;14.82;5.63;;;7.50;88.60;;;;;;5011888;28;20036;-77
2023/01/18 12:59:42;;;;;;;15.43;7.07;;;7.50;88.90;;;;;;5015338;28;20112;-83
2023/01/18 13:02:34;;;;;;;10.52;4.95;;;7.60;88.90;;;;;;5014558;28;20037;-77
2023/01/18 13:05:12;;;;;;;9.80;5.25;;;7.50;89.40;;;;;;5012790;28;20030;-77
2023/01/18 13:07:39;;;;;;;;;;;7.60;89.80;;;;;;5013484;28;20030;-79
2023/01/18 13:10:18;;;;;;;14.57;6.30;;;7.50;88.70;;;;;;5013578;28;19963;-77
2023/01/18 13:12:48;;;;;;;10.98;5.18;;;7.50;89.70;;;;;;5013058;28;20474;-85
2023/01/18 13:15:44;;;;;;;9.73;5.05;;;7.60;89.40;;;;;;5012306;28;20083;-82
2023/01/18 13:18:29;;;;;;;8.75;4.35;;;7.50;88.80;;;;;;5012411;28;20359;-82
2023/01/18 13:21:30;;;;;;;7.93;4.28;;;7.40;88.90;;;;;;5015167;28;20021;-83
2023/01/18 13:24:29;;;;;;;15.15;5.10;;;7.50;89.70;;;;;;5005134;28;20038;-78
2023/01/18 13:27:13;;;;;;;17.73;5.63;;;7.30;89.50;;;;;;5013340;28;20052;-80
2023/01/18 13:29:39;;;;;;;10.10;4.63;;;7.20;89.70;;;;;;5014072;28;20042;-78
2023/01/18 13:32:29;;;;;;;15.15;5.50;;;7.20;90.00;;;;;;5013028;28;20026;-78
2023/01/18 13:35:18;;;;;;;14.70;6.07;;;7.10;89.90;;;;;;5012912;28;20094;-81
2023/01/18 13:37:44;;;;;;;12.57;5.18;;;7.10;90.10;;;;;;5012617;28;20030;-78
2023/01/18 13:40:24;;;;;;;18.25;5.55;;;6.90;90.00;;;;;;5011526;28;20030;-79